Talbott, Tennessee
Current Conditions -  °F | °C
As of 2:15 PM on Tuesday 21 Oct 2014 (Local Time) from KMOR Reporting Station
Scattered Clouds Scattered Clouds  
Wind Chill: 64°   Ceiling: Unl
Heat Index: 64°   Visibility: 10mi
Dew Point: 45°   Wind: 15mph
Humidity: 49%   Direction: 300°WNW
Pressure: 30"   Gusts: NA
Location:  36.15°N, 83.41°W
Report Text: KMOR 211815Z AUTO 30013KT 10SM FEW048 SCT050 18/07 A3000 RMK
Loading
Personal Weather Stations






























Interactive Weather Map
Tropical Storm Tracking
New forecast layout! Learn more

10-Day Weather Forecast

Advertisements
Track Severe Weather on mobile